Roberto Rodriguez

Jefe de ojeadores - Leon
10 Sep 2028
Domingo
Continuar

Personalidad

Adaptabilidad (18) Ambición (11) Controversia (14) Lealtad (1) Presión (4) Profesionalismo (5) Deportividad (3) Temperamento (18)

Perfil

Estilo de dirección Democrático
Licencia Nacional B
Determinación 7
Gestión de personas 13
Motivación 8
Disciplina 7
Satisfacción laboral
100%
Fatiga
0%
Cargo Jefe de ojeadores
Salario 19.5K p/s
Contrato 14.03.2029

Rendimiento

Comportamiento Bueno
Efectividad del entrenamiento
41%
Desarrollo de jugadores
50%
Prevención de lesiones
35%
Implementación táctica
30%

Eventos recientes

Recomendó un objetivo de fichaje ahora
Recomendó un objetivo de fichaje ahora
Recomendó un objetivo de fichaje ahora
Asistió a una reunión de captación ahora
Recomendó un objetivo de fichaje ahora
Evaluó a un jugador ahora
Evaluó a un jugador ahora
Evaluó a un jugador ahora

Actualmente siguiendo

382
Jugador Club Estado Habilidad Confianza Observado Última observación Último voto
Ángel Maciel Tacuarembo Activo 116 / 121 40% 2 09.09.2028 -
Frankarlos Benítez Caracas Activo 117 / 124 40% 1 09.09.2028 -
Facundo Sanguinetti Banfield Activo 130 / 136 40% 1 09.09.2028 -
Iñaki Peña Urawa Reds Activo 147 / 147 40% 1 08.09.2028 -
Juan Moreno La Luz Activo 119 / 120 40% 1 08.09.2028 -
Alejandro Rodríguez Melgar Activo 128 / 132 40% 1 08.09.2028 -
Tomás Ahumada Audax Italiano Activo 129 / 127 40% 1 07.09.2028 -
Luciano Jachfe Nueva Chicago Activo 123 / 118 40% 1 07.09.2028 -
Nicolás Sumavil Platense Activo 122 / 111 40% 1 07.09.2028 -
Luka Gavran Toronto FC Activo 117 / 114 40% 1 06.09.2028 -
Ángel González Libertad Activo 120 / 119 40% 1 06.09.2028 -
Francisco Salerno Defensores Unidos Activo 116 / 114 40% 1 05.09.2028 -
Matías Dufour Sportivo Trinidense Activo 119 / 111 40% 1 05.09.2028 -
Sebastián Meza Bragantino Activo 131 / 128 40% 1 05.09.2028 -
Jesús Vega Queretaro Negociando 102 / 99 76% 1 28.08.2028 -
Peyton Miller New England Revolution Activo 110 / 131 40% 1 23.08.2028 -
Alejandro Almaraz NK Celje Activo 121 / 107 40% 1 23.08.2028 -
Miguel Agámez Atletico Nacional Activo 99 / 116 40% 1 23.08.2028 -
Diego Romero Universitario Perdido 133 / 124 40% 1 21.08.2028 -
Lucas Cuevas Rosario Central Activo 120 / 122 40% 1 21.08.2028 -
Celías Ingenthron Platense Activo 114 / 129 40% 6 16.08.2028 -
Felipe Obradovich Ferro Carril Oeste Activo 113 / 122 40% 1 16.08.2028 -
Augusto Bando Ascoli Activo 109 / 125 40% 1 16.08.2028 -
Sol Brynn Bradford City Activo 139 / 143 40% 1 07.08.2028 -
Kiani Inge Groningen Activo 116 / 130 40% 2 31.07.2028 -
Roberto Medina La Equidad Activo 98 / 105 40% 1 31.07.2028 -
Diego Vargas Universidad de Concepcion Activo 94 / 102 40% 2 24.07.2028 -
Héctor Fort Real Sociedad Activo 148 / 158 40% 7 24.07.2028 -
Jorge Salinas Racing Santander Activo 141 / 150 40% 8 24.07.2028 -
Bernardo Lima Porto Perdido 121 / 119 40% 5 11.07.2028 -
Tobías Ramírez River Plate Activo 127 / 136 40% 2 11.07.2028 -
Lautaro Dufur Juventud Activo 105 / 106 40% 3 11.07.2028 -
Josh Nichols Oldham Athletic Activo 123 / 136 40% 5 10.07.2028 -
Andrija Bulatović Chamois Niortais Activo 133 / 119 40% 4 10.07.2028 -
Cheveyo Tsawa Club Brugge Activo 132 / 128 40% 4 07.07.2028 -
Christos Mouzakitis Hull City Activo 133 / 131 40% 2 04.07.2028 -
Buba Sangaré Elche Activo 132 / 138 40% 1 04.07.2028 -
Trey Nyoni Rotherham United Activo 143 / 158 40% 4 03.07.2028 -
Martim Cunha Porto Activo 118 / 107 40% 4 02.07.2028 -
Ayden Heaven Portsmouth Activo 149 / 136 40% 4 30.06.2028 -
Tyler Fletcher Rotherham United Activo 114 / 129 40% 3 30.06.2028 -
Jan Bürger Northampton Town Activo 125 / 139 40% 11 26.06.2028 -
Nicolás Fernández Pachuca Informe listo 120 / 124 76% 1 26.06.2028 -
Mourad Tijuana Informe listo 125 / 115 76% 1 19.06.2028 -
Lucas Høgsberg RC Strasbourg Activo 149 / 134 40% 3 15.06.2028 -
Riquelme Thompson-Jones Accrington Stanley Activo 106 / 128 40% 1 15.06.2028 -
Lamine Bèye Portimonense Activo 117 / 120 40% 2 13.06.2028 -
Daniel Banjaqui Benfica Activo 128 / 143 40% 5 11.06.2028 -
Joel Ezra Enyimba Activo 94 / 93 40% 5 10.06.2028 -
Jorge Hernández Tijuana Informe listo 122 / 124 76% 1 07.06.2028 -
Giovanni Leoni Lincoln City Activo 135 / 135 40% 3 06.06.2028 -
Pape Diong Westerlo Perdido 125 / 131 40% 3 05.06.2028 -
Alfie Whiteman Newport County Activo 121 / 113 40% 1 05.06.2028 -
Thijs Kraaijeveld USM Alger Activo 132 / 125 40% 1 05.06.2028 -
Cade Cowell Guadalajara Perdido 115 / 119 76% 1 04.06.2028 -
Andrés Martín Racing Santander Activo 148 / 155 40% 5 03.06.2028 -
Jayden Danns Bradford City Activo 138 / 151 40% 3 03.06.2028 -
Joaquín Tobio Burgos Pachuca Activo 120 / 139 76% 1 03.06.2028 Aprobar
Urko Izeta Cádiz Activo 136 / 127 40% 6 02.06.2028 -
Fer Niño Elche Activo 135 / 135 40% 4 02.06.2028 -
Balázs Tóth Blackburn Rovers Activo 136 / 139 40% 1 01.06.2028 -
James Trafford Leeds United Activo 159 / 141 40% 1 01.06.2028 -
Lukáš Horníček Burnley Activo 149 / 147 40% 1 01.06.2028 -
Jonathan Dubasin Osasuna Activo 151 / 161 40% 6 30.05.2028 -
Abel Ruiz Girona Activo 153 / 148 40% 6 30.05.2028 -
Maroan Sannadi Athletic Bilbao Activo 150 / 134 40% 5 30.05.2028 -
Óscar Aranda Getafe Activo 143 / 129 40% 8 29.05.2028 -
Javi Puado Espanyol Activo 146 / 140 40% 7 29.05.2028 -
Yassir Zabiri Stade Rennais Activo 139 / 131 40% 5 27.05.2028 -
Zito Luvumbo Cagliari Activo 134 / 138 40% 7 26.05.2028 -
Adrián Niño Málaga Activo 138 / 126 40% 4 26.05.2028 -
Ismaïla Sarr Crystal Palace Activo 161 / 145 40% 3 25.05.2028 -
García Pascual Cádiz Activo 131 / 114 40% 4 22.05.2028 -
Hugo Duro Valencia Activo 137 / 153 40% 5 21.05.2028 -
Tyreece Campbell Charlton Athletic Activo 128 / 130 40% 4 21.05.2028 -
Diego López Valencia Activo 141 / 139 40% 4 20.05.2028 -
Malik Mothersille Stockport County Activo 114 / 106 40% 2 20.05.2028 -
Callum O'Hare Sheffield United Activo 144 / 125 40% 2 19.05.2028 -
Jon Morcillo Almería Activo 140 / 126 40% 3 15.05.2028 -
Justo Giani Umraniyespor Activo 119 / 125 40% 10 12.05.2028 -
Honest Ahanor Atalanta Activo 142 / 152 40% 5 12.05.2028 -
Aaron Collins Milton Keynes Dons Activo 129 / 135 40% 1 07.05.2028 -
Tyrese Campbell Sheffield United Activo 126 / 122 40% 5 06.05.2028 -
Christantus Uche Getafe Activo 152 / 134 40% 7 06.05.2028 -
Nicolò Moranduzzo Renate Activo 90 / 95 40% 1 03.05.2028 -
William Osula Wrexham Activo 141 / 152 40% 3 01.05.2028 -
Juanmi Latasa Valladolid Activo 138 / 138 40% 3 25.04.2028 -
Adam Jakobsen Castellón Activo 115 / 135 40% 2 20.04.2028 -
Sebastiano Esposito Cagliari Activo 144 / 156 40% 1 19.04.2028 -
Luis Suárez Sporting CP Activo 170 / 143 40% 3 14.04.2028 -
Miguel Rodríguez Alavés Activo 129 / 155 40% 6 12.04.2028 -
Roberto Fernández Braga Activo 154 / 149 40% 6 09.04.2028 -
Chupete Málaga Activo 129 / 139 40% 4 08.04.2028 -
Taiwo Awoniyi Middlesbrough Activo 152 / 150 40% 1 06.04.2028 -
Pau Víctor Braga Activo 137 / 134 40% 1 05.04.2028 -
Facundo Colidio Vasco da Gama Activo 135 / 122 40% 9 03.04.2028 -
Andrés Ferrari Sint-Truiden Activo 119 / 112 40% 5 02.04.2028 -
Troy Parrott Betis Activo 147 / 146 40% 3 28.03.2028 -
Borja Mayoral Getafe Activo 156 / 133 40% 3 25.03.2028 -
Christian Kouamé Atlético Mineiro Activo 131 / 133 40% 2 23.03.2028 -
Alemão Rayo Vallecano Activo 138 / 142 40% 1 20.03.2028 -
Rodrigo Muniz Fulham Activo 147 / 146 40% 1 19.03.2028 -
Williot Swedberg Celta Activo 153 / 137 40% 1 18.03.2028 -
Musa Barrow ES Setif Activo 144 / 128 40% 1 18.03.2028 -
Izan Merino Málaga Activo 124 / 140 40% 1 14.03.2028 -
Tobiáš Pališčák Zlin Activo 93 / 125 40% 1 14.03.2028 -
Peque Real Sociedad Activo 145 / 138 40% 2 08.03.2028 -
Jorthy Mokio ADO Den Haag Activo 126 / 134 40% 1 07.03.2028 -
Liel Abada Inter Miami CF Activo 145 / 127 40% 11 27.02.2028 -
Iñigo Córdoba Castellón Activo 135 / 116 40% 1 24.02.2028 -
Alejo Veliz Bahia Activo 136 / 127 40% 2 17.02.2028 -
Cheikh Sabaly Vancouver Whitecaps Activo 128 / 118 40% 1 11.02.2028 -
Josh Acheampong Everton Activo 146 / 139 40% 1 08.02.2028 -
Esteban Obregón Montevideo City Torque Activo 125 / 117 40% 2 07.02.2028 -
Wessam Abou Ali Columbus Crew Activo 128 / 125 40% 1 07.02.2028 -
Victor Froholdt Porto Activo 154 / 145 40% 2 18.01.2028 -
Ignacio Fernández Boston River Activo 87 / 106 40% 1 18.01.2028 -
Matias Siltanen Malmo FF Activo 134 / 122 40% 3 10.01.2028 -
Hian Rincón Once Caldas Activo 92 / 96 40% 1 10.01.2028 -
Julian Herrera Cortulua Activo 124 / 126 40% 1 05.01.2028 -
Bitello Universidad de Chile Activo 135 / 135 68% 1 01.01.2028 Aprobar
Pedro de la Vega Columbus Crew Activo 133 / 134 66% 1 01.01.2028 Aprobar
Facundo Torres Millonarios Activo 134 / 134 67% 1 01.01.2028 Aprobar
Ignacio Russo Tigre Activo 122 / 125 40% 1 31.12.2027 -
Franco Fagúndez Iquique Activo 122 / 111 40% 1 31.12.2027 -
Emerson Batalla Atletico Bucaramanga Activo 130 / 125 40% 5 30.12.2027 -
Mateo Garavito Deportivo Pasto Activo 118 / 125 40% 4 30.12.2027 -
Alexis Cuello San Lorenzo Activo 131 / 132 40% 5 28.12.2027 -
Julián Palacios Envigado Activo 116 / 119 40% 1 28.12.2027 -
Ignacio Aliseda Cerro Porteno Activo 126 / 131 40% 3 25.12.2027 -
Erick Pulga Bahia Activo 135 / 133 40% 1 25.12.2027 -
Iñaki Larthirigoyen San Telmo Activo 123 / 122 40% 6 23.12.2027 -
Manuel Mónaco Sarmiento Activo 124 / 116 40% 4 21.12.2027 -
Dylan Borrero America de Cali Activo 123 / 116 40% 6 21.12.2027 -
Juan Bisanz Huracán Activo 130 / 120 40% 7 20.12.2027 -
Sayfallah Ltaief O'Higgins Activo 127 / 130 40% 5 20.12.2027 -
Daniel Barrea Godoy Cruz Activo 122 / 122 40% 5 19.12.2027 -
Andrés Gómez Vasco da Gama Activo 143 / 132 40% 2 19.12.2027 -
Alex Luna Instituto Activo 137 / 128 40% 6 18.12.2027 -
Johan Martínez Deportivo Cali Activo 128 / 123 40% 8 18.12.2027 -
Alejo Dramisino Atlanta Activo 116 / 108 40% 5 15.12.2027 -
Alejo Cruz Juventud Activo 121 / 125 40% 5 13.12.2027 -
Camilo Martinez Cortulua Activo 122 / 128 40% 5 13.12.2027 -
Antonio Galeano Remo Stars Activo 127 / 134 40% 7 11.12.2027 -
Franco Nicola Liverpool Montevideo Activo 126 / 126 40% 3 10.12.2027 -
Alejandro Piedrahita Deportivo Pereira Activo 121 / 121 40% 3 07.12.2027 -
Santiago Toloza O'Higgins Activo 121 / 116 40% 1 06.12.2027 -
Santiago Montiel Independiente Activo 128 / 135 40% 6 05.12.2027 -
Matko Miljevic Racing Club Activo 131 / 127 40% 1 03.12.2027 -
Caio Vidal Deportivo Pereira Activo 136 / 136 40% 7 02.12.2027 -
Franco Zapiola Platense Activo 131 / 120 40% 4 01.12.2027 -
Caleb Yirenkyi Coventry City Activo 144 / 133 40% 2 29.11.2027 -
Daniel Idoko Ikorodu City Activo 97 / 111 40% 5 27.11.2027 -
Sebastián Navarro Atletico Nacional Activo 123 / 127 40% 5 24.11.2027 -
Hugo Rojas Instituto Activo 108 / 102 40% 1 24.11.2027 -
Aarón Molinas Defensa y Justicia Activo 131 / 133 40% 4 23.11.2027 -
Zahir Ibarra Defensa y Justicia Activo 100 / 104 40% 2 21.11.2027 -
Victor Hernandez Santa Fe Activo 124 / 133 40% 6 19.11.2027 -
Bruno Leyes Godoy Cruz Activo 123 / 134 40% 5 19.11.2027 -
Mohamed Moussa Koïta Mathare United Activo 100 / 92 40% 1 19.11.2027 -
Agustín Medina Lanús Activo 113 / 114 40% 1 19.11.2027 -
Nahuel Leivas Montevideo City Torque Activo 99 / 109 40% 4 18.11.2027 -
Felipe Faúndez O'Higgins Activo 101 / 107 40% 2 18.11.2027 -
Juan Manuel Villalba Tigre Activo 120 / 121 40% 2 18.11.2027 -
Nazareno Roselli Defensa y Justicia Activo 109 / 113 40% 2 17.11.2027 -
Azizbek To'lqinbekov Bunyodkor Activo 90 / 90 40% 1 13.11.2027 -
Yerry Gonzalez Universitario Popayan Activo 93 / 97 40% 3 12.11.2027 -
Luciano Posadas Central Córdoba SdE Activo 93 / 95 40% 2 12.11.2027 -
Adrian Skogmar Malmo FF Activo 115 / 102 40% 2 11.11.2027 -
Kevin Zenón Boca Juniors Activo 131 / 122 40% 5 08.11.2027 -
Hosea Michael Remo Stars Activo 90 / 98 40% 1 08.11.2027 -
Telasco Segovia Inter Miami CF Activo 135 / 123 40% 1 04.11.2027 -
Edwin Mosquera Santa Fe Activo 124 / 127 40% 5 31.10.2027 -
Patricio Moyano Defensores Activo 115 / 121 40% 4 31.10.2027 -
Samuel Velásquez Atletico Nacional Activo 125 / 125 40% 2 17.10.2027 -
Lucas Assadi AIK Activo 126 / 117 40% 1 16.10.2027 -
Antony Portland Timbers Activo 136 / 131 40% 1 15.10.2027 -
Jonás Luna Wanderers Activo 120 / 118 40% 1 14.10.2027 -
Ulises Giménez River Plate Activo 117 / 108 40% 2 07.10.2027 -
Olaniyi Saheed Kwara United Activo 96 / 91 40% 1 07.10.2027 -
David Da Costa Portland Timbers Activo 129 / 140 40% 2 05.10.2027 -
Axel Leiva Independiente Rivadavia Activo 94 / 98 40% 1 05.10.2027 -
Facundo Balatti Penarol Activo 107 / 111 40% 1 01.10.2027 -
Jannenson Sarmiento Junior Activo 126 / 129 40% 2 29.09.2027 -
Colin Guske Orlando City Activo 95 / 108 40% 1 25.09.2027 -
Yury Oyarzo Racing Activo 94 / 91 40% 2 24.09.2027 -
Agustín Obregón River Plate Activo 111 / 126 40% 2 21.09.2027 -
Ángel Aguayo Sol de America Activo 87 / 107 40% 1 21.09.2027 -
Franco Díaz Temperley Activo 124 / 130 40% 1 13.09.2027 -
Edison López Atletico Nacional Activo 127 / 128 40% 1 12.09.2027 -
Emiliano Álvarez Progreso Activo 124 / 116 40% 1 12.09.2027 -
Gadiel Paoli River Plate Activo 89 / 94 40% 3 09.09.2027 -
Santiago Colidio Liepaja Activo 84 / 92 40% 1 06.09.2027 -
Bruno Barticciotto Talleres Activo 122 / 127 40% 1 01.09.2027 -
Luciano Cosentino Wanderers Activo 127 / 122 40% 1 31.08.2027 -
Mbekezeli Mbokazi Chicago Fire Activo 132 / 133 40% 2 19.08.2027 -
Tommaso Cecotti Carpi Activo 89 / 121 40% 5 17.08.2027 -
Esteban de Lima Tacuarembo Activo 86 / 87 40% 3 17.08.2027 -
Chibueze Oputa Rangers International Activo 82 / 83 40% 1 13.08.2027 -
Sascha Britschgi AC Milan Activo 132 / 134 40% 8 11.08.2027 -
Pedro Vian Seewald Dolomiti Bellunesi Activo 101 / 104 40% 2 10.08.2027 -
Riley Owen Stevenage Activo 103 / 96 40% 5 09.08.2027 -
Maldini Kacurri Grimsby Town Activo 93 / 103 40% 2 27.07.2027 -
Zane Albarus Shrewsbury Town Activo 105 / 109 40% 6 24.07.2027 -
Charlie Gray Fleetwood Town Activo 88 / 98 40% 8 24.07.2027 -
Jenson Jones Walsall Activo 103 / 91 40% 7 19.07.2027 -
Simón Pinto Huachipato Activo 107 / 99 40% 1 16.07.2027 -
George Hoddle Cambridge United Activo 85 / 91 40% 1 11.07.2027 -
Godwin Oham Warri Wolves Activo 92 / 88 40% 1 10.07.2027 -
Tiago Freitas Benfica Activo 120 / 122 40% 4 09.07.2027 -
Marco Oroná Antofagasta Activo 93 / 101 40% 3 08.07.2027 -
Louis Leroux FC Nantes Activo 127 / 146 40% 10 07.07.2027 -
Issa Yusuf Shooting Stars Activo 89 / 103 40% 2 07.07.2027 -
Rhys Walters Port Vale Activo 102 / 94 40% 1 21.06.2027 -
Ezra Mayers West Ham United Activo 117 / 122 40% 3 16.06.2027 -
Juan Diego Perdomo Depor Activo 86 / 91 40% 1 15.06.2027 -
Daniel Padilla Zamora Activo 96 / 90 40% 1 15.06.2027 -
Edwin Asamoah Berekum Chelsea Activo 79 / 100 40% 3 10.06.2027 -
Miguel Figueiredo Benfica Activo 116 / 107 40% 1 03.06.2027 -
Olivier Leroux Mouscron Activo 90 / 108 40% 1 02.06.2027 -
Erick Sánchez RC Lens Activo 139 / 139 68% 1 01.06.2027 Aprobar
Gonçalo Oliveira Benfica Activo 114 / 132 40% 7 24.05.2027 -
Samuele di Benedetto Twente Activo 105 / 121 40% 2 17.05.2027 -
Eliás Montiel Borussia Dortmund Activo 131 / 130 40% 1 12.05.2027 -
James Bacca La Equidad Activo 124 / 138 40% 2 06.05.2027 -
Kazunari Kita Real Sociedad Activo 92 / 94 40% 4 30.04.2027 -
James Dornelly Peterborough United Activo 109 / 95 40% 3 04.04.2027 -
Cam Bragg West Ham United Activo 116 / 133 40% 1 02.04.2027 -
Emirhan Başyiğit Sivasspor Activo 98 / 110 40% 1 02.04.2027 -
David Ozoh Derby County Activo 125 / 112 40% 2 01.04.2027 -
Carlos Álvarez Club America Activo 148 / 135 40% 8 31.03.2027 -
Sorriso Famalicao Activo 131 / 120 40% 4 31.03.2027 -
Manu Pozo Torreense Activo 112 / 121 40% 3 31.03.2027 -
Ramiro Sordo Santos Laguna Activo 131 / 123 40% 4 28.03.2027 -
Mikey Johnston West Bromwich Albion Activo 117 / 104 40% 1 28.03.2027 -
Marcelo Allende Mamelodi Sundowns Activo 123 / 111 40% 5 27.03.2027 -
Jacques Ekomié Wrexham Activo 123 / 117 40% 2 26.03.2027 -
Kwadwo Baah Watford Activo 123 / 133 40% 1 26.03.2027 -
Oston O'runov Persepolis Activo 128 / 113 40% 3 20.03.2027 -
Brian Rodríguez Club America Activo 132 / 120 40% 3 17.03.2027 -
Juan Bezerra Zamalek Activo 129 / 102 40% 2 17.03.2027 -
Andre Brooks Sheffield United Activo 133 / 145 40% 3 17.03.2027 -
Oswin Appollis Orlando Pirates Activo 119 / 138 40% 3 14.03.2027 -
Mohammad Mehdi Mohebi Persepolis Activo 132 / 97 40% 3 14.03.2027 -
Bongani Zungu Ajax Cape Town Activo 119 / 144 40% 4 11.03.2027 -
Ilias Sebaoui Sint-Truiden Activo 133 / 123 40% 1 10.03.2027 -
Max Johnston Derby County Activo 131 / 128 40% 2 08.03.2027 -
Carlos Forbs Club Brugge Activo 123 / 147 40% 2 06.03.2027 -
Max Bird Birmingham Activo 143 / 118 40% 2 05.03.2027 -
Joe Gelhardt Hull City Activo 142 / 138 40% 1 04.03.2027 -
Petar Stanić Ludogorets Activo 136 / 140 40% 1 03.03.2027 -
Scott Twine Bristol City Activo 122 / 131 40% 1 02.03.2027 -
Derensili Sanches Fernandes Huddersfield Town Activo 127 / 120 40% 1 02.03.2027 -
Tony Springett Cheltenham Town Activo 116 / 121 40% 3 26.02.2027 -
Isaiah Jones Luton Town Activo 126 / 127 40% 4 25.02.2027 -
Tomáš Rigo Stoke City Activo 120 / 131 40% 1 24.02.2027 -
Jeremy Márquez Cruz Azul Activo 127 / 136 40% 1 24.02.2027 -
Osher Davida Maccabi Tel Aviv Activo 109 / 116 40% 1 22.02.2027 -
Brian Gutiérrez Guadalajara Activo 130 / 129 40% 1 20.02.2027 -
Duk Atlas Activo 113 / 127 40% 1 19.02.2027 -
Milan van Ewijk Coventry City Activo 143 / 124 40% 4 17.02.2027 -
Saeid Pouraliganji Rah Ahan Activo 110 / 92 40% 1 15.02.2027 -
Cian Ashford Cardiff City Activo 119 / 105 40% 5 14.02.2027 -
Jackson Muleka Konyaspor Activo 142 / 118 40% 1 14.02.2027 -
Ilyas Ansah Hull City Activo 140 / 122 40% 1 13.02.2027 -
Bradley Zwane SuperSport United Activo 114 / 97 40% 1 12.02.2027 -
Thijmen Blokzijl KV Kortrijk Activo 129 / 112 40% 1 12.02.2027 -
Yanis Begraoui Estoril Praia Activo 145 / 151 40% 1 10.02.2027 -
Tristan Degreef Anderlecht Activo 124 / 142 40% 1 07.02.2027 -
Finn Azaz Southampton Activo 141 / 131 40% 2 06.02.2027 -
Erik Lira Cruz Azul Activo 139 / 135 40% 3 06.02.2027 -
Peter Federico Gornik Zabrze Activo 137 / 119 40% 1 03.02.2027 -
Omar Campos Cruz Azul Activo 124 / 117 40% 5 01.02.2027 -
César Pérez Defensa y Justicia Activo 121 / 126 40% 3 27.01.2027 -
Fidel Ambríz Monterrey Activo 122 / 118 40% 2 27.01.2027 -
Yaimar Medina Racing Genk Activo 120 / 143 40% 1 27.01.2027 -
Elia Caprile Cagliari Activo 152 / 136 40% 1 18.01.2027 -
Jesús Orozco Chiquete Cruz Azul Activo 127 / 130 40% 3 13.01.2027 -
Marco Pellegrino Boca Juniors Activo 132 / 127 40% 1 13.01.2027 -
Mamadou Sylla Al-Riyadh Activo 115 / 120 40% 1 12.01.2027 -
Brooke Norton-Cuffy Hull City Activo 147 / 134 40% 2 07.01.2027 -
Pedro Vite Pumas UNAM Activo 119 / 111 40% 3 07.01.2027 Observar
Terry Devlin Portsmouth Activo 124 / 132 40% 1 07.01.2027 -
Ricardo Echeverría Santos Laguna Activo 110 / 112 40% 1 06.01.2027 -
Ethan Pye Stockport County Activo 109 / 104 40% 1 05.01.2027 -
Bosun Lawal Stoke City Activo 136 / 121 40% 2 03.01.2027 -
Alejandro Gómez Tijuana Activo 124 / 112 40% 2 03.01.2027 -
Taiga Hata Sint-Truiden Activo 123 / 108 40% 1 03.01.2027 -
Georgie Gent Barnsley Activo 121 / 123 40% 1 02.01.2027 -
Stanislav Agkatsev Brentford Activo 132 / 133 66% 1 01.01.2027 Aprobar
Sampson Dweh Mallorca Activo 133 / 134 66% 1 01.01.2027 Aprobar
Jacob Greaves Ipswich Town Activo 138 / 142 40% 6 30.12.2026 -
Nazareno Colombo Racing Club Activo 129 / 120 40% 3 30.12.2026 -
César Araújo Tigres Activo 120 / 126 40% 3 28.12.2026 -
Dara O'Shea Ipswich Town Activo 138 / 127 40% 2 28.12.2026 -
Manu Morlanes Mallorca Activo 135 / 148 40% 5 26.12.2026 -
Mamadou Sangaré Brentford Activo 138 / 148 40% 1 22.12.2026 -
Gastón Benedetti Estudiantes Perdido 131 / 122 40% 4 21.12.2026 -
César Ibáñez Huracán Activo 127 / 122 40% 5 20.12.2026 -
Sergi Cardona KAA Gent Activo 155 / 162 40% 3 20.12.2026 -
Alejandro Pozo Standard Liege Activo 127 / 129 40% 6 17.12.2026 -
Valentín Gómez Betis Activo 145 / 154 40% 1 17.12.2026 -
Thomas Carrique Andorra Activo 128 / 113 40% 1 16.12.2026 -
Gustavo Mantuan Zenit Activo 126 / 152 40% 2 13.12.2026 -
Toby Collyer West Bromwich Albion Activo 127 / 116 40% 1 11.12.2026 -
Ilay Camara Anderlecht Activo 123 / 128 40% 1 11.12.2026 -
Damián Fernández Defensa y Justicia Activo 119 / 124 40% 1 10.12.2026 -
Dennis Cirkin Queens Park Rangers Activo 137 / 116 40% 1 09.12.2026 -
Ramón Juárez Club America Activo 137 / 123 40% 1 07.12.2026 Más información
Álex Centelles Levski Activo 131 / 120 40% 1 06.12.2026 -
Oliver Skipp Leicester City Activo 139 / 135 40% 2 05.12.2026 -
Franco Ibarra Rosario Central Activo 134 / 131 40% 4 04.12.2026 -
Luke McNally Bristol City Activo 127 / 113 40% 2 04.12.2026 -
Toti Wolverhampton Activo 120 / 150 40% 1 03.12.2026 -
Aníbal Moreno River Plate Activo 129 / 134 40% 3 26.11.2026 -
Lautaro Di Lollo Boca Juniors Activo 122 / 133 40% 1 25.11.2026 -
Harry Clarke Preston Activo 120 / 118 40% 1 22.11.2026 -
Shea Charles Southampton Activo 128 / 127 40% 1 22.11.2026 -
Anel Ahmedhodžić Burnley Activo 130 / 132 40% 2 19.11.2026 -
Welington Southampton Activo 137 / 114 40% 1 19.11.2026 -
Joaquim Tigres Activo 123 / 128 40% 1 18.11.2026 -
Adam Randell Bristol City Activo 125 / 130 40% 1 18.11.2026 -
Jordan Beyer Burnley Activo 122 / 144 40% 1 17.11.2026 -
Santiago González Tigre Activo 132 / 124 40% 1 16.11.2026 -
Marcelino Moreno Lanús Activo 136 / 136 40% 1 13.11.2026 -
Ferland Mendy Real Madrid Activo 146 / 156 40% 2 12.11.2026 -
Ulises Sánchez Gimnasia y Esgrima Activo 124 / 130 40% 1 12.11.2026 -
Alan Lescano Argentinos Juniors Activo 135 / 125 40% 1 11.11.2026 -
Leandro Lozano Boca Juniors Activo 120 / 129 40% 1 11.11.2026 -
Guido Mainero Platense Activo 125 / 118 40% 3 10.11.2026 -
Elías Gómez Vélez Activo 132 / 128 40% 1 10.11.2026 -
Agustín Palavecino Cruz Azul Activo 146 / 147 40% 2 06.11.2026 -
Tiago Palacios Estudiantes Activo 131 / 130 40% 1 05.11.2026 -
Matías Zaracho Racing Club Activo 134 / 128 40% 2 03.11.2026 -
Valentín Depietri Talleres Activo 125 / 130 40% 1 03.11.2026 -
Matías Fernández Independiente Rivadavia Activo 119 / 126 40% 1 02.11.2026 -
Rick Talleres Activo 126 / 117 40% 2 27.10.2026 -
Juan Pablo Gallego Fehervar Activo 106 / 93 40% 2 27.10.2026 -
Leonardo Godoy Independiente Activo 127 / 131 40% 1 27.10.2026 -
Gonzalo Ríos Independiente Rivadavia Activo 124 / 119 40% 1 27.10.2026 -
Santiago Longo Belgrano Activo 133 / 116 40% 1 24.10.2026 -
Lucas Souto Defensa y Justicia Activo 122 / 132 40% 1 24.10.2026 -
Emanuel Coronel Rosario Central Activo 132 / 115 40% 1 24.10.2026 -
Nicolás Laméndola Atlético Tucumán Activo 114 / 117 40% 1 24.10.2026 -
Juan Cruz de los Santos Nacional Activo 117 / 126 40% 1 24.10.2026 -
Antony Alonso Deportivo Riestra Activo 127 / 122 40% 3 22.10.2026 -
Ramiro Ruiz Rodríguez Atlético Tucumán Activo 114 / 111 40% 3 21.10.2026 -
Adrián Sánchez Belgrano Activo 129 / 119 40% 1 21.10.2026 -
Juan Velázquez Belgrano Activo 115 / 129 40% 1 21.10.2026 -
Joaquín Gho Argentinos Juniors Activo 122 / 114 40% 3 19.10.2026 -
Alex Vigo Independiente Rivadavia Activo 120 / 114 40% 1 19.10.2026 -
Rodrigo De Paul Inter Miami CF Activo 163 / 144 40% 2 16.10.2026 -
Óscar Valentín FC Copenhagen Activo 144 / 149 40% 2 13.10.2026 -
Ignacio Rodríguez Racing Club Activo 121 / 118 40% 1 13.10.2026 -
Renzo Tesuri Atlético Tucumán Activo 129 / 125 40% 1 12.10.2026 -
Jhonatan Candia Barracas Central Activo 126 / 121 40% 1 10.10.2026 -
Tyrhys Dolan Espanyol Activo 145 / 126 40% 3 08.10.2026 -
Francisco Herrera Veracruz Activo 132 / 121 40% 2 08.10.2026 -
Luís Esteves Atlas Activo 131 / 129 40% 1 08.10.2026 -
Brian Lozano Cerro Largo Activo 125 / 115 40% 1 07.10.2026 -
Talles Magno New York City Activo 126 / 141 40% 2 05.10.2026 -
Ryan Gauld Vancouver Whitecaps Activo 137 / 134 40% 2 04.10.2026 -
Víctor Guzmán Toluca Activo 135 / 126 40% 1 03.10.2026 -
Alexey Miranchuk Atlanta United FC Activo 146 / 148 40% 1 03.10.2026 -
Jens Petter Hauge Bodo/Glimt Activo 134 / 136 40% 1 01.10.2026 -
Tomás Alarcón Colo-Colo Activo 119 / 123 40% 1 27.09.2026 -
Morgan Guilavogui Real Salt Lake Activo 130 / 117 40% 2 25.09.2026 -
Matías Fernández Colo-Colo Activo 127 / 116 40% 1 25.09.2026 -
Sergi Palencia Los Angeles Football Club Activo 122 / 132 40% 1 24.09.2026 -
João Cancelo Spartak Moscow Activo 148 / 149 40% 1 23.09.2026 -
Diego Luna Real Salt Lake Activo 128 / 121 40% 2 21.09.2026 -
Allan Saint-Maximin Charlotte Football Club Activo 146 / 138 40% 2 20.09.2026 -
Djordje Mihailović Toronto FC Activo 135 / 119 40% 1 19.09.2026 -
Santiago Rodríguez Columbus Crew Activo 130 / 133 40% 1 17.09.2026 -
Jonathan Bamba Chicago Fire Activo 127 / 142 40% 1 14.09.2026 -
Luis Romo Guadalajara Activo 137 / 150 40% 1 13.09.2026 -
Edu Expósito Espanyol Activo 136 / 137 40% 1 11.09.2026 -
Ander Guevara Racing Genk Activo 133 / 134 40% 1 11.09.2026 -
Facundo Mura Inter Miami CF Activo 120 / 112 40% 1 11.09.2026 -
Julián Brea Cobresal Activo 98 / 99 40% 1 09.09.2026 -
Josh Sargent Toronto FC Activo 120 / 117 40% 1 20.08.2026 -
Dwight McNeil Crystal Palace Activo 127 / 126 40% 1 01.08.2026 -